createdAt,value
2022-10-25T00:00:57.090Z,13.61
2022-10-25T00:01:57.243Z,13.79
2022-10-25T00:02:57.104Z,13.67
2022-10-25T00:03:57.060Z,13.71
2022-10-25T00:04:57.298Z,13.73
2022-10-25T00:05:57.075Z,13.67
2022-10-25T00:06:57.057Z,13.71
2022-10-25T00:07:57.105Z,13.73
2022-10-25T00:08:57.035Z,13.67
2022-10-25T00:09:57.317Z,13.64
2022-10-25T00:10:57.017Z,13.63
2022-10-25T00:11:57.410Z,13.63
2022-10-25T00:12:57.027Z,13.54
2022-10-25T00:13:56.994Z,13.55
2022-10-25T00:14:57.039Z,13.58
2022-10-25T00:15:56.990Z,13.61
2022-10-25T00:16:56.973Z,13.55
2022-10-25T00:17:56.989Z,13.57
2022-10-25T00:18:56.963Z,13.39
2022-10-25T00:19:57.019Z,13.54
2022-10-25T00:20:57.021Z,13.53
2022-10-25T00:21:56.959Z,13.53
2022-10-25T00:22:56.933Z,13.57
2022-10-25T00:23:57.097Z,13.61
2022-10-25T00:24:56.952Z,13.58
2022-10-25T00:25:56.919Z,13.55
2022-10-25T00:26:56.934Z,13.68
2022-10-25T00:27:56.910Z,13.61
2022-10-25T00:28:56.897Z,13.61
2022-10-25T00:29:56.910Z,13.55
2022-10-25T00:30:56.919Z,13.57
2022-10-25T00:31:56.886Z,13.54
2022-10-25T00:32:56.861Z,13.51
2022-10-25T00:33:56.858Z,13.54
2022-10-25T00:34:56.861Z,13.58
2022-10-25T00:35:57.376Z,13.57
2022-10-25T00:36:56.837Z,13.60
2022-10-25T00:37:56.857Z,13.57
2022-10-25T00:38:56.822Z,13.54
2022-10-25T00:39:56.812Z,13.60
2022-10-25T00:40:58.221Z,13.57
2022-10-25T00:41:56.798Z,13.65
2022-10-25T00:42:56.799Z,13.67
2022-10-25T00:43:56.789Z,13.57
2022-10-25T00:44:56.777Z,13.61
2022-10-25T00:45:56.823Z,13.53
2022-10-25T00:46:56.771Z,13.46
2022-10-25T00:47:56.770Z,13.57
2022-10-25T00:48:56.776Z,13.63
2022-10-25T00:49:56.754Z,13.57
2022-10-25T00:50:56.740Z,13.60
2022-10-25T00:51:56.771Z,13.57
2022-10-25T00:52:56.728Z,13.51
2022-10-25T00:53:56.740Z,13.49
2022-10-25T00:54:56.719Z,13.51
2022-10-25T00:55:56.755Z,13.47
2022-10-25T00:56:56.708Z,13.55
2022-10-25T00:57:56.691Z,13.57
2022-10-25T00:58:56.687Z,13.51
2022-10-25T00:59:56.675Z,13.55
2022-10-25T01:00:56.691Z,13.46
2022-10-25T01:01:56.839Z,13.42
2022-10-25T01:03:57.089Z,13.40
2022-10-25T01:04:56.660Z,13.42
2022-10-25T01:05:56.665Z,13.40
2022-10-25T01:06:56.649Z,13.42
2022-10-25T01:07:56.622Z,13.40
2022-10-25T01:08:56.648Z,13.32
2022-10-25T01:09:56.635Z,13.39
2022-10-25T01:10:56.598Z,13.35
2022-10-25T01:11:56.605Z,13.30
2022-10-25T01:12:57.014Z,13.40
2022-10-25T01:13:56.985Z,13.36
2022-10-25T01:14:56.581Z,13.46
2022-10-25T01:15:56.577Z,13.54
2022-10-25T01:16:56.562Z,13.47
2022-10-25T01:17:56.584Z,13.46
2022-10-25T01:18:56.536Z,13.54
2022-10-25T01:19:56.560Z,13.47
2022-10-25T01:20:56.556Z,13.35
2022-10-25T01:21:56.534Z,13.39
2022-10-25T01:22:56.514Z,13.30
2022-10-25T01:23:56.501Z,13.26
2022-10-25T01:24:56.490Z,13.23
2022-10-25T01:25:56.514Z,13.27
2022-10-25T01:26:56.530Z,13.26
2022-10-25T01:28:56.478Z,13.38
2022-10-25T01:29:56.458Z,13.21
2022-10-25T01:30:56.461Z,13.29
2022-10-25T01:31:56.450Z,13.32
2022-10-25T01:32:56.513Z,13.35
2022-10-25T01:33:56.490Z,13.43
2022-10-25T01:34:56.419Z,13.38
2022-10-25T01:35:56.478Z,13.36
2022-10-25T01:36:56.416Z,13.32
2022-10-25T01:37:56.443Z,13.27
2022-10-25T01:38:56.399Z,13.21
2022-10-25T01:39:56.388Z,13.16
2022-10-25T01:40:56.398Z,13.19
2022-10-25T01:41:56.400Z,13.23
2022-10-25T01:42:56.821Z,13.17
2022-10-25T01:43:56.369Z,13.24
2022-10-25T01:44:56.401Z,13.29
2022-10-25T01:45:56.347Z,13.27
2022-10-25T01:46:56.339Z,13.09
2022-10-25T01:47:56.348Z,13.16
2022-10-25T01:48:56.330Z,13.21
2022-10-25T01:49:56.802Z,13.17
2022-10-25T01:50:56.318Z,13.24
2022-10-25T01:51:56.308Z,13.27
2022-10-25T01:52:56.611Z,13.30
2022-10-25T01:53:56.287Z,13.17
2022-10-25T01:54:56.300Z,13.35
2022-10-25T01:55:56.298Z,13.14
2022-10-25T01:56:56.268Z,13.21
2022-10-25T01:57:56.292Z,13.26
2022-10-25T01:58:56.259Z,13.14
2022-10-25T01:59:56.286Z,13.11
2022-10-25T02:00:56.369Z,13.23
2022-10-25T02:01:56.230Z,13.21
2022-10-25T02:02:56.234Z,13.23
2022-10-25T02:03:56.260Z,13.16
2022-10-25T02:04:56.288Z,13.14
2022-10-25T02:05:56.215Z,13.27
2022-10-25T02:06:56.255Z,13.05
2022-10-25T02:07:56.195Z,13.24
2022-10-25T02:08:56.247Z,13.30
2022-10-25T02:09:56.252Z,13.40
2022-10-25T02:10:56.592Z,13.29
2022-10-25T02:11:56.188Z,13.46
2022-10-25T02:12:56.198Z,13.51
2022-10-25T02:13:56.179Z,13.45
2022-10-25T02:14:56.171Z,13.45
2022-10-25T02:15:56.152Z,13.47
2022-10-25T02:16:56.178Z,13.43
2022-10-25T02:17:56.186Z,13.49
2022-10-25T02:18:56.173Z,13.38
2022-10-25T02:19:56.211Z,13.45
2022-10-25T02:20:56.171Z,13.43
2022-10-25T02:21:56.110Z,13.43
2022-10-25T02:22:56.182Z,13.49
2022-10-25T02:23:56.095Z,13.42
2022-10-25T02:24:56.138Z,13.46
2022-10-25T02:25:56.071Z,13.39
2022-10-25T02:26:56.073Z,13.47
2022-10-25T02:27:56.088Z,13.36
2022-10-25T02:28:56.074Z,13.29
2022-10-25T02:29:56.077Z,13.32
2022-10-25T02:30:56.041Z,13.27
2022-10-25T02:31:56.030Z,13.35
2022-10-25T02:32:56.054Z,13.39
2022-10-25T02:33:56.023Z,13.26
2022-10-25T02:34:56.014Z,13.32
2022-10-25T02:35:56.667Z,13.27
2022-10-25T02:36:55.993Z,13.32
2022-10-25T02:37:55.999Z,13.45
2022-10-25T02:38:56.359Z,13.30
2022-10-25T02:39:55.981Z,13.32
2022-10-25T02:40:55.984Z,13.43
2022-10-25T02:41:55.968Z,13.35
2022-10-25T02:42:55.953Z,13.29
2022-10-25T02:43:55.946Z,13.30
2022-10-25T02:44:55.964Z,13.30
2022-10-25T02:45:55.964Z,13.21
2022-10-25T02:46:55.959Z,13.27
2022-10-25T02:47:55.959Z,13.06
2022-10-25T02:48:55.912Z,13.20
2022-10-25T02:49:55.915Z,13.16
2022-10-25T02:50:55.905Z,13.09
2022-10-25T02:51:55.897Z,13.16
2022-10-25T02:52:55.896Z,13.04
2022-10-25T02:53:55.893Z,13.01
2022-10-25T02:54:55.890Z,13.09
2022-10-25T02:55:55.880Z,13.06
2022-10-25T02:56:55.864Z,12.95
2022-10-25T02:57:55.871Z,13.05
2022-10-25T02:58:55.876Z,12.91
2022-10-25T02:59:55.871Z,12.90
2022-10-25T03:00:57.261Z,12.88
2022-10-25T03:01:55.894Z,12.93
2022-10-25T03:02:55.830Z,12.95
2022-10-25T03:03:55.825Z,12.91
2022-10-25T03:04:55.811Z,12.87
2022-10-25T03:05:55.810Z,12.86
2022-10-25T03:06:55.792Z,12.84
2022-10-25T03:07:55.789Z,12.86
2022-10-25T03:08:55.785Z,12.83
2022-10-25T03:09:55.791Z,12.86
2022-10-25T03:10:55.763Z,12.84
2022-10-25T03:11:55.799Z,12.79
2022-10-25T03:12:55.768Z,12.83
2022-10-25T03:13:55.960Z,12.80
2022-10-25T03:14:55.741Z,12.87
2022-10-25T03:15:55.762Z,12.88
2022-10-25T03:16:55.748Z,12.87
2022-10-25T03:17:55.823Z,12.84
2022-10-25T03:18:55.762Z,12.86
2022-10-25T03:19:55.703Z,12.86
2022-10-25T03:20:55.702Z,12.86
2022-10-25T03:21:55.693Z,12.84
2022-10-25T03:22:55.691Z,12.80
2022-10-25T03:23:55.676Z,12.83
2022-10-25T03:24:55.759Z,12.69
2022-10-25T03:25:55.695Z,12.81
2022-10-25T03:26:55.696Z,12.88
2022-10-25T03:27:55.644Z,12.81
2022-10-25T03:28:56.366Z,12.81
2022-10-25T03:29:55.645Z,12.80
2022-10-25T03:30:55.627Z,12.73
2022-10-25T03:31:55.646Z,12.73
2022-10-25T03:32:55.623Z,12.68
2022-10-25T03:33:55.650Z,12.72
2022-10-25T03:34:55.614Z,12.80
2022-10-25T03:35:55.600Z,12.81
2022-10-25T03:36:55.623Z,12.79
2022-10-25T03:37:55.599Z,12.73
2022-10-25T03:38:55.571Z,12.79
2022-10-25T03:39:55.571Z,12.77
2022-10-25T03:40:55.554Z,12.84
2022-10-25T03:41:55.616Z,12.69
2022-10-25T03:42:55.557Z,12.83
2022-10-25T03:43:55.536Z,12.76
2022-10-25T03:44:55.532Z,12.72
2022-10-25T03:45:55.576Z,12.69
2022-10-25T03:46:55.535Z,12.68
2022-10-25T03:47:55.529Z,12.65
2022-10-25T03:48:55.906Z,12.71
2022-10-25T03:49:55.523Z,12.71
2022-10-25T03:50:55.507Z,12.79
2022-10-25T03:51:57.919Z,12.83
2022-10-25T03:52:55.591Z,12.76
2022-10-25T03:53:55.513Z,12.69
2022-10-25T03:54:55.496Z,12.69
2022-10-25T03:55:55.530Z,12.80
2022-10-25T03:56:55.536Z,12.84
2022-10-25T03:57:55.469Z,12.80
2022-10-25T03:58:55.439Z,12.81
2022-10-25T03:59:55.482Z,12.73
2022-10-25T04:00:55.494Z,12.84
2022-10-25T04:01:55.477Z,12.84
2022-10-25T04:02:59.418Z,12.84
2022-10-25T04:03:55.409Z,12.91
2022-10-25T04:04:55.483Z,12.95
2022-10-25T04:05:55.426Z,12.88
2022-10-25T04:06:55.407Z,12.83
2022-10-25T04:07:55.384Z,12.95
2022-10-25T04:08:55.388Z,12.93
2022-10-25T04:09:55.367Z,12.88
2022-10-25T04:10:55.624Z,12.87
2022-10-25T04:11:55.354Z,12.86
2022-10-25T04:12:55.430Z,12.83
2022-10-25T04:13:55.399Z,12.87
2022-10-25T04:14:55.336Z,12.80
2022-10-25T04:15:55.346Z,12.88
2022-10-25T04:16:55.317Z,12.79
2022-10-25T04:17:55.315Z,12.86
2022-10-25T04:18:55.328Z,12.86
2022-10-25T04:19:55.297Z,12.81
2022-10-25T04:20:55.319Z,12.77
2022-10-25T04:21:55.306Z,12.86
2022-10-25T04:22:55.289Z,12.86
2022-10-25T04:23:56.069Z,12.87
2022-10-25T04:24:55.264Z,12.83
2022-10-25T04:25:55.305Z,12.86
2022-10-25T04:26:55.768Z,12.84
2022-10-25T04:27:55.246Z,12.90
2022-10-25T04:28:55.240Z,12.98
2022-10-25T04:29:55.244Z,12.91
2022-10-25T04:30:55.239Z,12.93
2022-10-25T04:31:55.243Z,12.96
2022-10-25T04:32:55.324Z,12.96
2022-10-25T04:33:55.215Z,12.95
2022-10-25T04:34:55.208Z,12.91
2022-10-25T04:35:55.192Z,12.91
2022-10-25T04:36:55.188Z,12.91
2022-10-25T04:37:55.214Z,12.96
2022-10-25T04:38:55.199Z,12.96
2022-10-25T04:39:55.174Z,12.96
2022-10-25T04:40:55.155Z,12.98
2022-10-25T04:41:55.263Z,12.90
2022-10-25T04:42:55.211Z,12.99
2022-10-25T04:43:55.134Z,12.91
2022-10-25T04:44:55.925Z,12.91
2022-10-25T04:45:55.122Z,12.87
2022-10-25T04:46:55.111Z,13.01
2022-10-25T04:47:55.111Z,12.98
2022-10-25T04:48:55.130Z,12.86
2022-10-25T04:49:55.120Z,12.99
2022-10-25T04:50:55.088Z,12.91
2022-10-25T04:51:55.809Z,12.93
2022-10-25T04:52:55.100Z,12.88
2022-10-25T04:53:55.110Z,12.95
2022-10-25T04:54:55.173Z,12.93
2022-10-25T04:55:55.862Z,12.96
2022-10-25T04:56:55.064Z,12.98
2022-10-25T04:57:55.640Z,13.06
2022-10-25T04:58:55.030Z,12.98
2022-10-25T04:59:55.024Z,13.02
2022-10-25T05:00:55.687Z,12.87
2022-10-25T05:01:55.014Z,12.95
2022-10-25T05:02:55.139Z,12.80
2022-10-25T05:03:54.993Z,12.77
2022-10-25T05:04:55.001Z,12.77
2022-10-25T05:05:55.017Z,12.90
2022-10-25T05:06:54.981Z,12.81
2022-10-25T05:07:54.963Z,12.86
2022-10-25T05:08:54.965Z,12.77
2022-10-25T05:09:54.980Z,12.91
2022-10-25T05:10:54.951Z,12.91
2022-10-25T05:11:54.964Z,12.98
2022-10-25T05:12:54.928Z,12.93
2022-10-25T05:13:54.929Z,12.87
2022-10-25T05:14:54.923Z,12.98
2022-10-25T05:15:54.908Z,12.95
2022-10-25T05:16:54.925Z,12.95
2022-10-25T05:17:54.898Z,12.87
2022-10-25T05:18:54.889Z,12.93
2022-10-25T05:19:56.111Z,12.90
2022-10-25T05:20:54.887Z,12.91
2022-10-25T05:21:54.899Z,12.87
2022-10-25T05:22:54.896Z,12.83
2022-10-25T05:24:00.456Z,12.96
2022-10-25T05:24:55.845Z,13.04
2022-10-25T05:25:54.870Z,12.95
2022-10-25T05:26:54.840Z,12.96
2022-10-25T05:27:54.859Z,12.98
2022-10-25T05:28:54.827Z,13.05
2022-10-25T05:29:54.810Z,12.99
2022-10-25T05:30:54.805Z,12.95
2022-10-25T05:31:54.804Z,13.01
2022-10-25T05:32:54.789Z,13.01
2022-10-25T05:33:54.795Z,13.05
2022-10-25T05:34:54.844Z,12.99
2022-10-25T05:35:54.811Z,12.93
2022-10-25T05:36:54.807Z,12.95
2022-10-25T05:37:54.758Z,12.95
2022-10-25T05:38:54.751Z,12.90
2022-10-25T05:39:54.761Z,12.90
2022-10-25T05:40:54.830Z,12.87
2022-10-25T05:41:54.759Z,12.83
2022-10-25T05:42:54.753Z,12.88
2022-10-25T05:43:54.713Z,12.81
2022-10-25T05:44:54.714Z,12.80
2022-10-25T05:45:54.699Z,12.84
2022-10-25T05:46:54.694Z,12.88
2022-10-25T05:47:54.698Z,12.73
2022-10-25T05:48:54.698Z,12.81
2022-10-25T05:49:54.709Z,12.72
2022-10-25T05:51:03.465Z,12.80
2022-10-25T05:51:55.657Z,12.80
2022-10-25T05:52:54.658Z,12.83
2022-10-25T05:53:55.312Z,12.71
2022-10-25T05:54:54.689Z,12.69
2022-10-25T05:55:54.643Z,12.58
2022-10-25T05:56:54.625Z,12.71
2022-10-25T05:57:54.662Z,12.68
2022-10-25T05:58:54.659Z,12.61
2022-10-25T05:59:55.281Z,12.61
2022-10-25T06:00:54.650Z,12.65
2022-10-25T06:01:54.705Z,12.63
2022-10-25T06:02:55.034Z,12.62
2022-10-25T06:03:54.590Z,12.61
2022-10-25T06:04:54.577Z,12.58
2022-10-25T06:05:54.570Z,12.48
2022-10-25T06:06:54.575Z,12.54
2022-10-25T06:07:54.569Z,12.51
2022-10-25T06:08:54.542Z,12.51
2022-10-25T06:09:54.545Z,12.51
2022-10-25T06:10:54.555Z,12.55
2022-10-25T06:11:54.809Z,12.48
2022-10-25T06:12:54.534Z,12.59
2022-10-25T06:13:54.645Z,12.48
2022-10-25T06:14:54.506Z,12.66
2022-10-25T06:15:54.505Z,12.58
2022-10-25T06:16:54.502Z,12.59
2022-10-25T06:17:54.488Z,12.68
2022-10-25T06:18:54.491Z,12.71
2022-10-25T06:19:54.476Z,12.63
2022-10-25T06:20:54.474Z,12.63
2022-10-25T06:21:54.486Z,12.66
2022-10-25T06:22:54.480Z,12.68
2022-10-25T06:23:54.467Z,12.76
2022-10-25T06:24:54.446Z,12.84
2022-10-25T06:25:54.447Z,12.87
2022-10-25T06:26:54.424Z,12.87
2022-10-25T06:27:54.591Z,12.90
2022-10-25T06:28:54.588Z,12.88
2022-10-25T06:29:54.424Z,12.86
2022-10-25T06:30:54.417Z,12.93
2022-10-25T06:31:54.390Z,12.90
2022-10-25T06:32:54.398Z,12.88
2022-10-25T06:33:54.387Z,12.88
2022-10-25T06:34:54.373Z,12.88
2022-10-25T06:35:54.390Z,12.93
2022-10-25T06:36:54.384Z,12.88
2022-10-25T06:37:54.354Z,12.98
2022-10-25T06:38:54.355Z,12.96
2022-10-25T06:39:54.343Z,13.08
2022-10-25T06:40:54.331Z,12.93
2022-10-25T06:41:54.321Z,12.99
2022-10-25T06:42:54.332Z,13.16
2022-10-25T06:43:54.307Z,13.23
2022-10-25T06:44:54.333Z,13.17
2022-10-25T06:45:54.324Z,13.24
2022-10-25T06:47:19.628Z,13.23
2022-10-25T06:47:55.288Z,13.20
2022-10-25T06:48:54.296Z,13.17
2022-10-25T06:49:54.392Z,13.32
2022-10-25T06:50:54.269Z,13.11
2022-10-25T06:51:54.260Z,13.20
2022-10-25T06:52:54.286Z,13.16
2022-10-25T06:53:54.250Z,13.29
2022-10-25T06:54:54.509Z,13.24
2022-10-25T06:55:54.223Z,13.27
2022-10-25T06:56:54.241Z,13.36
2022-10-25T06:57:54.221Z,13.39
2022-10-25T06:58:54.209Z,13.43
2022-10-25T06:59:54.293Z,13.30
2022-10-25T07:00:54.319Z,13.35
2022-10-25T07:01:54.383Z,13.21
2022-10-25T07:02:54.199Z,13.20
2022-10-25T07:03:54.187Z,13.04
2022-10-25T07:04:54.216Z,12.99
2022-10-25T07:05:54.167Z,12.95
2022-10-25T07:06:55.325Z,12.91
2022-10-25T07:07:54.165Z,12.96
2022-10-25T07:08:54.152Z,12.96
2022-10-25T07:09:54.132Z,12.93
2022-10-25T07:10:54.134Z,12.83
2022-10-25T07:11:54.140Z,12.88
2022-10-25T07:12:54.127Z,12.84
2022-10-25T07:13:54.103Z,12.88
2022-10-25T07:14:54.107Z,12.81
2022-10-25T07:15:54.092Z,12.83
2022-10-25T07:16:54.090Z,12.83
2022-10-25T07:17:54.104Z,12.86
2022-10-25T07:18:54.072Z,12.95
2022-10-25T07:19:54.080Z,12.88
2022-10-25T07:20:54.056Z,12.81
2022-10-25T07:21:54.057Z,12.86
2022-10-25T07:22:59.198Z,12.81
2022-10-25T07:23:55.054Z,12.90
2022-10-25T07:24:54.046Z,12.91
2022-10-25T07:25:54.031Z,12.87
2022-10-25T07:26:54.045Z,12.90
2022-10-25T07:27:54.007Z,12.98
2022-10-25T07:28:54.017Z,13.01
2022-10-25T07:29:54.001Z,13.02
2022-10-25T07:30:54.000Z,13.09
2022-10-25T07:31:54.005Z,13.09
2022-10-25T07:32:53.971Z,13.20
2022-10-25T07:33:53.986Z,13.23
2022-10-25T07:34:54.108Z,13.21
2022-10-25T07:36:09.763Z,13.35
2022-10-25T07:36:54.998Z,13.51
2022-10-25T07:37:54.649Z,13.46
2022-10-25T07:38:53.934Z,13.73
2022-10-25T07:39:53.935Z,13.61
2022-10-25T07:40:54.075Z,13.67
2022-10-25T07:41:53.910Z,13.75
2022-10-25T07:42:53.916Z,13.90
2022-10-25T07:43:53.918Z,14.05
2022-10-25T07:44:53.911Z,14.01
2022-10-25T07:45:53.889Z,13.97
2022-10-25T07:46:53.883Z,13.91
2022-10-25T07:47:53.891Z,13.86
2022-10-25T07:48:53.864Z,13.73
2022-10-25T07:49:53.883Z,13.83
2022-10-25T07:50:53.855Z,13.73
2022-10-25T07:51:53.851Z,13.83
2022-10-25T07:52:53.842Z,13.93
2022-10-25T07:53:54.434Z,13.94
2022-10-25T07:54:53.824Z,14.13
2022-10-25T07:55:54.293Z,14.22
2022-10-25T07:56:53.813Z,14.36
2022-10-25T07:57:53.809Z,14.52
2022-10-25T07:58:54.591Z,14.79
2022-10-25T07:59:54.035Z,15.03
2022-10-25T08:00:53.779Z,15.17
2022-10-25T08:01:53.859Z,15.23
2022-10-25T08:02:53.918Z,15.25
2022-10-25T08:03:53.758Z,15.17
2022-10-25T08:04:54.428Z,15.40
2022-10-25T08:05:53.775Z,15.41
2022-10-25T08:06:53.735Z,15.41
2022-10-25T08:07:53.754Z,15.62
2022-10-25T08:08:53.725Z,15.72
2022-10-25T08:09:53.711Z,15.93
2022-10-25T08:10:53.718Z,16.39
2022-10-25T08:11:53.701Z,16.58
2022-10-25T08:12:53.696Z,16.69
2022-10-25T08:13:53.698Z,16.61
2022-10-25T08:14:53.687Z,16.58
2022-10-25T08:15:53.689Z,16.32
2022-10-25T08:16:53.668Z,16.25
2022-10-25T08:17:53.695Z,15.81
2022-10-25T08:18:53.654Z,15.72
2022-10-25T08:19:53.652Z,15.56
2022-10-25T08:21:02.705Z,15.43
2022-10-25T08:21:54.654Z,15.33
2022-10-25T08:22:53.664Z,15.15
2022-10-25T08:23:53.613Z,15.04
2022-10-25T08:24:53.615Z,15.04
2022-10-25T08:25:53.611Z,15.59
2022-10-25T08:26:53.606Z,16.13
2022-10-25T08:27:53.594Z,16.61
2022-10-25T08:28:53.580Z,17.04
2022-10-25T08:29:53.570Z,16.82
2022-10-25T08:30:53.573Z,16.44
2022-10-25T08:31:53.580Z,16.21
2022-10-25T08:32:53.564Z,16.03
2022-10-25T08:33:53.561Z,15.65
2022-10-25T08:34:53.544Z,15.47
2022-10-25T08:35:53.526Z,15.36
2022-10-25T08:36:53.566Z,15.05
2022-10-25T08:37:53.546Z,14.86
2022-10-25T08:38:53.511Z,14.95
2022-10-25T08:39:55.622Z,14.82
2022-10-25T08:40:53.503Z,14.69
2022-10-25T08:41:53.502Z,14.61
2022-10-25T08:42:53.489Z,14.53
2022-10-25T08:43:53.521Z,14.58
2022-10-25T08:44:53.470Z,14.48
2022-10-25T08:45:53.463Z,14.49
2022-10-25T08:46:53.450Z,14.53
2022-10-25T08:47:53.459Z,14.53
2022-10-25T08:48:53.441Z,14.55
2022-10-25T08:49:53.459Z,14.61
2022-10-25T08:50:54.489Z,14.69
2022-10-25T08:51:53.418Z,14.86
2022-10-25T08:52:53.416Z,14.93
2022-10-25T08:54:53.406Z,15.03
2022-10-25T08:56:11.647Z,15.07
2022-10-25T08:57:10.665Z,15.29
2022-10-25T08:57:54.915Z,15.32
2022-10-25T08:58:53.372Z,15.41
2022-10-25T08:59:53.369Z,15.63
2022-10-25T09:00:53.362Z,15.60
2022-10-25T09:01:53.507Z,15.44
2022-10-25T09:02:53.419Z,15.26
2022-10-25T09:03:53.405Z,15.10
2022-10-25T09:04:53.365Z,15.26
2022-10-25T09:05:53.325Z,15.38
2022-10-25T09:06:53.329Z,15.41
2022-10-25T09:07:53.333Z,15.40
2022-10-25T09:08:53.310Z,15.45
2022-10-25T09:09:53.325Z,15.63
2022-10-25T09:10:53.416Z,15.60
2022-10-25T09:11:53.305Z,15.65
2022-10-25T09:12:53.299Z,15.65
2022-10-25T09:13:53.270Z,15.52
2022-10-25T09:14:53.264Z,15.62
2022-10-25T09:15:53.298Z,15.50
2022-10-25T09:16:53.249Z,15.44
2022-10-25T09:17:53.251Z,15.27
2022-10-25T09:18:53.310Z,15.35
2022-10-25T09:19:53.235Z,15.27
2022-10-25T09:20:53.222Z,15.30
2022-10-25T09:21:53.216Z,15.27
2022-10-25T09:22:53.200Z,15.32
2022-10-25T09:23:53.228Z,15.41
2022-10-25T09:24:56.853Z,15.43
2022-10-25T09:25:53.203Z,15.25
2022-10-25T09:26:53.180Z,15.29
2022-10-25T09:27:53.175Z,15.22
2022-10-25T09:28:53.161Z,15.15
2022-10-25T09:29:53.157Z,15.27
2022-10-25T09:30:53.149Z,15.38
2022-10-25T09:31:53.217Z,15.30
2022-10-25T09:32:53.136Z,15.36
2022-10-25T09:33:53.125Z,15.54
2022-10-25T09:34:53.112Z,16.05
2022-10-25T09:35:53.114Z,16.13
2022-10-25T09:36:53.104Z,16.36
2022-10-25T09:37:53.092Z,16.84
2022-10-25T09:38:53.101Z,16.72
2022-10-25T09:39:53.079Z,16.72
2022-10-25T09:40:53.067Z,16.91
2022-10-25T09:41:53.170Z,16.77
2022-10-25T09:42:53.123Z,16.76
2022-10-25T09:43:53.055Z,16.70
2022-10-25T09:44:53.046Z,16.62
2022-10-25T09:45:53.035Z,16.29
2022-10-25T09:46:53.231Z,16.09
2022-10-25T09:47:53.030Z,16.10
2022-10-25T09:48:53.010Z,16.37
2022-10-25T09:49:53.012Z,16.70
2022-10-25T09:50:53.014Z,16.80
2022-10-25T09:51:53.013Z,16.83
2022-10-25T09:52:53.039Z,16.99
2022-10-25T09:53:52.985Z,17.24
2022-10-25T09:54:52.979Z,17.02
2022-10-25T09:55:52.965Z,16.70
2022-10-25T09:56:52.951Z,17.07
2022-10-25T09:57:52.986Z,17.09
2022-10-25T09:58:52.957Z,17.28
2022-10-25T09:59:52.937Z,17.69
2022-10-25T10:00:52.941Z,17.93
2022-10-25T10:01:52.997Z,18.09
2022-10-25T10:02:53.075Z,18.39
2022-10-25T10:03:54.918Z,18.20
2022-10-25T10:04:52.893Z,18.03
2022-10-25T10:05:52.896Z,18.12
2022-10-25T10:06:52.889Z,18.34
2022-10-25T10:07:52.878Z,18.28
2022-10-25T10:08:52.880Z,18.42
2022-10-25T10:09:52.870Z,18.38
2022-10-25T10:10:52.859Z,18.17
2022-10-25T10:11:52.867Z,18.11
2022-10-25T10:12:52.915Z,17.52
2022-10-25T10:13:52.896Z,17.38
2022-10-25T10:14:52.831Z,17.07
2022-10-25T10:15:52.820Z,17.02
2022-10-25T10:16:52.809Z,16.92
2022-10-25T10:17:53.101Z,16.88
2022-10-25T10:18:52.800Z,16.83
2022-10-25T10:19:52.801Z,16.87
2022-10-25T10:20:52.786Z,16.90
2022-10-25T10:21:52.774Z,16.80
2022-10-25T10:22:52.900Z,16.61
2022-10-25T10:23:52.883Z,16.59
2022-10-25T10:24:52.779Z,16.47
2022-10-25T10:25:52.751Z,16.44
2022-10-25T10:26:52.808Z,16.55
2022-10-25T10:27:52.743Z,16.79
2022-10-25T10:28:52.731Z,17.31
2022-10-25T10:29:52.754Z,17.53
2022-10-25T10:30:53.355Z,17.71
2022-10-25T10:31:52.719Z,17.63
2022-10-25T10:32:55.033Z,17.73
2022-10-25T10:33:53.378Z,17.73
2022-10-25T10:34:52.685Z,17.54
2022-10-25T10:35:52.685Z,17.43
2022-10-25T10:36:52.701Z,17.37
2022-10-25T10:37:52.681Z,17.46
2022-10-25T10:38:52.693Z,17.72
2022-10-25T10:39:52.649Z,17.72
2022-10-25T10:40:52.642Z,17.39
2022-10-25T10:41:52.646Z,17.24
2022-10-25T10:42:54.743Z,17.07
2022-10-25T10:43:53.632Z,16.97
2022-10-25T10:44:52.618Z,16.91
2022-10-25T10:45:52.624Z,16.83
2022-10-25T10:46:52.623Z,16.77
2022-10-25T10:47:52.591Z,16.57
2022-10-25T10:48:52.596Z,16.44
2022-10-25T10:49:52.587Z,16.43
2022-10-25T10:50:52.585Z,16.29
2022-10-25T10:51:52.638Z,16.43
2022-10-25T10:52:55.141Z,16.34
2022-10-25T10:53:53.555Z,16.37
2022-10-25T10:54:52.544Z,16.42
2022-10-25T10:55:52.562Z,16.37
2022-10-25T10:56:52.561Z,16.28
2022-10-25T10:57:52.524Z,16.16
2022-10-25T10:58:53.748Z,16.10
2022-10-25T10:59:52.508Z,16.02
2022-10-25T11:00:52.515Z,15.95
2022-10-25T11:01:52.618Z,15.84
2022-10-25T11:02:53.125Z,15.80
2022-10-25T11:04:00.007Z,15.70
2022-10-25T11:04:53.479Z,15.69
2022-10-25T11:05:52.473Z,15.69
2022-10-25T11:06:52.509Z,15.60
2022-10-25T11:07:52.457Z,15.62
2022-10-25T11:08:52.444Z,15.69
2022-10-25T11:09:52.441Z,15.77
2022-10-25T11:10:52.496Z,15.99
2022-10-25T11:11:52.421Z,16.00
2022-10-25T11:12:53.156Z,15.98
2022-10-25T11:13:52.416Z,16.05
2022-10-25T11:14:52.408Z,16.16
2022-10-25T11:15:52.408Z,16.26
2022-10-25T11:16:52.402Z,16.40
2022-10-25T11:17:52.528Z,16.44
2022-10-25T11:18:52.420Z,16.49
2022-10-25T11:19:52.436Z,16.54
2022-10-25T11:20:52.383Z,16.62
2022-10-25T11:21:52.360Z,16.58
2022-10-25T11:22:52.357Z,16.67
2022-10-25T11:23:52.400Z,16.72
2022-10-25T11:24:52.342Z,16.65
2022-10-25T11:25:52.325Z,16.65
2022-10-25T11:26:52.369Z,16.59
2022-10-25T11:27:52.327Z,16.62
2022-10-25T11:28:52.318Z,16.69
2022-10-25T11:29:52.297Z,16.73
2022-10-25T11:30:52.315Z,16.65
2022-10-25T11:31:52.280Z,16.62
2022-10-25T11:32:52.282Z,16.61
2022-10-25T11:33:52.416Z,16.64
2022-10-25T11:34:52.260Z,16.74
2022-10-25T11:35:52.261Z,17.20
2022-10-25T11:36:52.502Z,17.25
2022-10-25T11:37:52.241Z,17.43
2022-10-25T11:38:52.245Z,17.69
2022-10-25T11:39:52.233Z,17.84
2022-10-25T11:40:52.220Z,18.01
2022-10-25T11:41:52.223Z,17.96
2022-10-25T11:42:52.246Z,17.96
2022-10-25T11:43:52.215Z,18.03
2022-10-25T11:44:52.189Z,18.05
2022-10-25T11:45:52.208Z,18.20
2022-10-25T11:46:52.175Z,18.12
2022-10-25T11:47:52.183Z,18.30
2022-10-25T11:48:52.169Z,18.42
2022-10-25T11:49:56.757Z,18.49
2022-10-25T11:50:53.020Z,18.38
2022-10-25T11:51:52.151Z,18.39
2022-10-25T11:52:54.510Z,18.18
2022-10-25T11:53:52.131Z,17.94
2022-10-25T11:54:52.144Z,18.02
2022-10-25T11:55:52.119Z,17.99
2022-10-25T11:56:52.146Z,17.68
2022-10-25T11:57:52.121Z,17.57
2022-10-25T11:58:52.092Z,17.53
2022-10-25T11:59:52.086Z,17.57
2022-10-25T12:00:52.107Z,17.57
2022-10-25T12:01:52.172Z,17.78
2022-10-25T12:02:52.277Z,17.84
2022-10-25T12:03:52.235Z,17.84
2022-10-25T12:04:52.056Z,17.87
2022-10-25T12:05:52.170Z,17.90
2022-10-25T12:06:52.033Z,17.81
2022-10-25T12:07:52.030Z,17.57
2022-10-25T12:08:52.036Z,17.32
2022-10-25T12:09:52.022Z,17.31
2022-10-25T12:10:52.018Z,17.19
2022-10-25T12:11:52.011Z,17.12
2022-10-25T12:12:51.991Z,17.12
2022-10-25T12:13:51.998Z,17.02
2022-10-25T12:14:51.990Z,17.12
2022-10-25T12:15:51.979Z,17.09
2022-10-25T12:16:51.972Z,17.19
2022-10-25T12:17:51.966Z,16.97
2022-10-25T12:18:51.970Z,17.02
2022-10-25T12:19:51.945Z,16.94
2022-10-25T12:20:51.945Z,17.06
2022-10-25T12:21:52.054Z,17.07
2022-10-25T12:22:51.934Z,17.01
2022-10-25T12:23:51.928Z,16.95
2022-10-25T12:24:51.927Z,16.92
2022-10-25T12:25:51.941Z,17.01
2022-10-25T12:26:52.080Z,16.99
2022-10-25T12:27:55.785Z,16.98
2022-10-25T12:28:51.901Z,17.12
2022-10-25T12:29:52.413Z,17.24
2022-10-25T12:30:51.877Z,17.28
2022-10-25T12:31:51.868Z,17.24
2022-10-25T12:32:51.863Z,17.25
2022-10-25T12:33:51.889Z,17.27
2022-10-25T12:34:51.875Z,17.30
2022-10-25T12:35:51.853Z,17.28
2022-10-25T12:36:51.826Z,17.27
2022-10-25T12:37:55.065Z,17.09
2022-10-25T12:38:52.813Z,16.99
2022-10-25T12:39:51.826Z,17.09
2022-10-25T12:40:52.174Z,17.12
2022-10-25T12:41:51.791Z,16.98
2022-10-25T12:42:51.793Z,16.97
2022-10-25T12:43:51.783Z,16.99
2022-10-25T12:44:51.782Z,16.99
2022-10-25T12:45:56.030Z,17.01
2022-10-25T12:46:52.767Z,16.98
2022-10-25T12:47:51.752Z,17.09
2022-10-25T12:48:51.738Z,17.10
2022-10-25T12:49:51.740Z,17.13
2022-10-25T12:50:51.739Z,17.27
2022-10-25T12:51:51.726Z,17.22
2022-10-25T12:52:51.718Z,17.27
2022-10-25T12:53:51.825Z,17.14
2022-10-25T12:54:51.791Z,17.24
2022-10-25T12:55:51.725Z,17.04